createdAt,value
2022-12-09T00:02:19.297Z,2.80
2022-12-09T00:05:21.470Z,2.70
2022-12-09T00:08:23.516Z,2.60
2022-12-09T00:11:26.230Z,2.60
2022-12-09T00:14:28.150Z,2.60
2022-12-09T00:17:30.984Z,2.70
2022-12-09T00:20:33.003Z,2.60
2022-12-09T00:23:34.947Z,2.60
2022-12-09T00:26:37.068Z,2.50
2022-12-09T00:29:39.195Z,2.50
2022-12-09T00:32:41.645Z,2.50
2022-12-09T00:35:43.769Z,2.60
2022-12-09T00:38:46.605Z,2.60
2022-12-09T00:41:50.196Z,2.60
2022-12-09T00:46:06.959Z,2.60
2022-12-09T00:49:10.397Z,2.60
2022-12-09T00:52:12.514Z,2.70
2022-12-09T00:55:14.601Z,2.80
2022-12-09T00:58:16.604Z,2.80
2022-12-09T01:01:18.569Z,2.80
2022-12-09T01:04:20.679Z,2.80
2022-12-09T01:07:22.821Z,2.90
2022-12-09T01:10:24.779Z,2.90
2022-12-09T01:13:26.643Z,2.80
2022-12-09T01:16:31.975Z,2.80
2022-12-09T01:19:34.386Z,2.70
2022-12-09T01:22:36.799Z,2.70
2022-12-09T01:25:39.365Z,2.70
2022-12-09T01:28:41.348Z,2.70
2022-12-09T01:31:44.371Z,2.60
2022-12-09T01:34:46.299Z,2.70
2022-12-09T01:37:48.476Z,2.70
2022-12-09T01:40:51.394Z,2.70
2022-12-09T01:44:14.851Z,2.80
2022-12-09T01:47:23.180Z,2.80
2022-12-09T01:50:27.340Z,2.80
2022-12-09T01:53:38.841Z,2.80
2022-12-09T01:56:41.540Z,2.80
2022-12-09T01:59:44.268Z,2.80
2022-12-09T02:02:48.778Z,2.90
2022-12-09T02:05:51.246Z,3.00
2022-12-09T02:08:54.305Z,3.00
2022-12-09T02:12:03.029Z,2.90
2022-12-09T02:15:12.907Z,2.90
2022-12-09T02:18:29.437Z,2.90
2022-12-09T02:21:54.399Z,3.00
2022-12-09T02:25:17.652Z,3.00
2022-12-09T02:28:25.340Z,3.00
2022-12-09T02:31:27.302Z,3.00
2022-12-09T02:34:36.228Z,2.90
2022-12-09T02:38:03.604Z,2.80
2022-12-09T02:41:17.768Z,2.80
2022-12-09T02:44:22.997Z,2.80
2022-12-09T02:47:28.370Z,2.80
2022-12-09T02:50:34.374Z,2.70
2022-12-09T02:53:38.775Z,2.80
2022-12-09T02:56:45.691Z,2.80
2022-12-09T02:59:47.723Z,2.80
2022-12-09T03:02:53.461Z,2.80
2022-12-09T03:06:07.680Z,2.80
2022-12-09T03:09:13.874Z,2.80
2022-12-09T03:12:20.079Z,2.80
2022-12-09T03:15:26.479Z,2.80
2022-12-09T03:18:32.345Z,2.70
2022-12-09T03:21:38.270Z,2.80
2022-12-09T03:24:50.337Z,2.80
2022-12-09T03:28:00.763Z,2.80
2022-12-09T03:31:09.117Z,2.80
2022-12-09T03:34:17.066Z,2.80
2022-12-09T03:37:21.225Z,2.80
2022-12-09T03:40:27.672Z,2.80
2022-12-09T03:43:34.788Z,2.90
2022-12-09T03:46:36.998Z,2.80
2022-12-09T03:49:40.346Z,2.80
2022-12-09T03:52:45.898Z,2.80
2022-12-09T03:56:08.546Z,2.80
2022-12-09T03:59:13.796Z,2.80
2022-12-09T04:02:15.826Z,2.80
2022-12-09T04:05:18.327Z,2.80
2022-12-09T04:08:20.679Z,2.90
2022-12-09T04:11:23.019Z,2.90
2022-12-09T04:14:24.936Z,2.90
2022-12-09T04:17:27.238Z,3.00
2022-12-09T04:20:29.151Z,2.90
2022-12-09T04:23:30.994Z,3.00
2022-12-09T04:26:33.018Z,3.00
2022-12-09T04:29:35.092Z,3.00
2022-12-09T04:32:37.259Z,3.00
2022-12-09T04:35:39.791Z,2.90
2022-12-09T04:38:42.872Z,3.00
2022-12-09T04:41:44.811Z,2.90
2022-12-09T04:44:47.160Z,2.90
2022-12-09T04:47:49.521Z,2.90
2022-12-09T04:50:51.918Z,2.90
2022-12-09T04:53:53.907Z,2.90
2022-12-09T04:56:55.840Z,3.00
2022-12-09T04:59:58.031Z,3.00
2022-12-09T05:03:00.263Z,3.00
2022-12-09T05:06:07.101Z,2.90
2022-12-09T05:09:13.386Z,2.90
2022-12-09T05:12:15.823Z,2.90
2022-12-09T05:15:18.458Z,2.90
2022-12-09T05:18:21.131Z,2.90
2022-12-09T05:21:23.252Z,2.90
2022-12-09T05:24:25.429Z,2.80
2022-12-09T05:27:27.660Z,2.90
2022-12-09T05:30:29.551Z,2.80
2022-12-09T05:33:35.185Z,2.80
2022-12-09T05:40:27.132Z,2.70
2022-12-09T05:43:29.026Z,2.70
2022-12-09T05:46:33.670Z,2.70
2022-12-09T05:49:36.359Z,2.70
2022-12-09T05:52:39.138Z,2.80
2022-12-09T05:55:42.034Z,2.70
2022-12-09T05:58:44.394Z,2.70
2022-12-09T06:01:48.801Z,2.70
2022-12-09T06:04:56.110Z,2.60
2022-12-09T06:08:03.673Z,2.50
2022-12-09T06:11:12.895Z,2.50
2022-12-09T06:14:15.139Z,2.50
2022-12-09T06:17:17.287Z,2.50
2022-12-09T06:20:19.461Z,2.50
2022-12-09T06:23:21.389Z,2.50
2022-12-09T06:26:28.948Z,2.50
2022-12-09T06:29:31.401Z,2.50
2022-12-09T06:32:34.421Z,2.50
2022-12-09T06:35:37.098Z,2.50
2022-12-09T06:38:39.444Z,2.60
2022-12-09T06:41:42.419Z,2.50
2022-12-09T06:44:44.907Z,2.60
2022-12-09T06:47:48.413Z,2.70
2022-12-09T06:50:51.590Z,2.70
2022-12-09T06:53:54.424Z,2.70
2022-12-09T06:56:56.976Z,2.80
2022-12-09T06:59:59.401Z,2.80
2022-12-09T07:03:01.461Z,2.70
2022-12-09T07:06:04.545Z,2.70
2022-12-09T07:09:19.253Z,2.60
2022-12-09T07:12:21.900Z,2.60
2022-12-09T07:15:24.173Z,2.60
2022-12-09T07:18:26.634Z,2.60
2022-12-09T07:21:29.734Z,2.70
2022-12-09T07:24:32.207Z,2.60
2022-12-09T07:27:34.440Z,2.60
2022-12-09T07:30:38.532Z,2.60
2022-12-09T07:33:41.445Z,2.70
2022-12-09T07:36:44.073Z,2.60
2022-12-09T07:39:46.197Z,2.60
2022-12-09T07:46:17.446Z,2.70
2022-12-09T07:49:20.091Z,2.80
2022-12-09T07:52:22.869Z,2.80
2022-12-09T07:55:24.860Z,2.70
2022-12-09T07:58:26.989Z,2.80
2022-12-09T08:01:30.392Z,2.70
2022-12-09T08:04:32.805Z,2.70
2022-12-09T08:07:38.690Z,2.70
2022-12-09T08:10:45.346Z,2.70
2022-12-09T08:13:48.236Z,2.60
2022-12-09T08:16:50.784Z,2.70
2022-12-09T08:19:53.199Z,2.70
2022-12-09T08:22:55.679Z,2.70
2022-12-09T08:25:58.066Z,2.60
2022-12-09T08:29:00.982Z,2.70
2022-12-09T08:32:03.799Z,2.70
2022-12-09T08:35:06.675Z,2.70
2022-12-09T08:38:09.162Z,2.60
2022-12-09T08:41:16.859Z,2.60
2022-12-09T08:44:21.015Z,2.60
2022-12-09T08:47:23.238Z,2.60
2022-12-09T08:50:25.735Z,2.60
2022-12-09T08:53:27.759Z,2.50
2022-12-09T08:56:30.795Z,2.60
2022-12-09T08:59:32.671Z,2.60
2022-12-09T09:02:34.665Z,2.60
2022-12-09T09:05:37.313Z,2.50
2022-12-09T09:08:39.612Z,2.50
2022-12-09T09:11:42.396Z,2.50
2022-12-09T09:14:44.681Z,2.60
2022-12-09T09:17:51.562Z,2.50
2022-12-09T09:20:58.941Z,2.50
2022-12-09T09:24:01.536Z,2.50
2022-12-09T09:27:03.560Z,2.50
2022-12-09T09:30:07.663Z,2.50
2022-12-09T09:33:10.392Z,2.50
2022-12-09T09:36:15.639Z,2.50
2022-12-09T09:39:19.338Z,2.60
2022-12-09T09:42:31.007Z,2.60
2022-12-09T09:45:33.994Z,2.60
2022-12-09T09:48:36.891Z,2.70
2022-12-09T09:51:40.058Z,2.60
2022-12-09T09:54:42.364Z,2.70
2022-12-09T09:57:55.674Z,2.70
2022-12-09T10:01:05.255Z,2.60
2022-12-09T10:04:19.472Z,2.70
2022-12-09T10:07:40.741Z,2.70
2022-12-09T10:11:09.157Z,2.60
2022-12-09T10:14:40.041Z,2.70
2022-12-09T10:17:51.183Z,2.70
2022-12-09T10:20:53.811Z,2.70
2022-12-09T10:23:57.484Z,2.70
2022-12-09T10:27:08.335Z,2.70
2022-12-09T10:30:19.877Z,2.60
2022-12-09T10:33:34.223Z,2.70
2022-12-09T10:36:38.756Z,2.70
2022-12-09T10:39:41.370Z,2.70
2022-12-09T10:43:16.828Z,2.70
2022-12-09T10:46:22.406Z,2.80
2022-12-09T10:49:25.387Z,2.70
2022-12-09T10:52:43.156Z,2.80
2022-12-09T10:55:52.112Z,2.90
2022-12-09T10:59:13.698Z,2.90
2022-12-09T11:02:16.025Z,2.90
2022-12-09T11:05:23.838Z,2.90
2022-12-09T11:08:26.064Z,2.80
2022-12-09T11:11:48.787Z,2.90
2022-12-09T11:15:21.286Z,2.90
2022-12-09T11:18:32.274Z,2.90
2022-12-09T11:21:37.040Z,2.90
2022-12-09T11:24:40.855Z,3.00
2022-12-09T11:27:57.869Z,3.00
2022-12-09T11:31:33.317Z,3.00
2022-12-09T11:34:37.756Z,2.90
2022-12-09T11:37:39.815Z,3.10
2022-12-09T11:40:41.741Z,3.00
2022-12-09T11:43:52.310Z,3.20
2022-12-09T11:47:08.050Z,3.00
2022-12-09T11:50:10.345Z,3.00
2022-12-09T11:53:12.415Z,3.00
2022-12-09T11:56:20.141Z,3.00
2022-12-09T11:59:26.201Z,3.00
2022-12-09T12:02:28.224Z,3.00
2022-12-09T12:05:41.273Z,3.10
2022-12-09T12:08:48.392Z,3.10
2022-12-09T12:12:41.463Z,3.20
2022-12-09T12:16:00.991Z,3.10
2022-12-09T12:19:13.733Z,3.20
2022-12-09T12:22:54.946Z,3.10
2022-12-09T12:26:16.842Z,3.10
2022-12-09T12:29:48.626Z,3.10
2022-12-09T12:36:20.760Z,3.10
2022-12-09T12:39:38.604Z,3.10
2022-12-09T12:43:31.623Z,3.10
2022-12-09T12:47:13.851Z,3.10
2022-12-09T12:50:38.930Z,3.10
2022-12-09T12:53:52.025Z,3.10
2022-12-09T12:57:18.049Z,3.00
2022-12-09T13:00:24.177Z,3.10
2022-12-09T13:03:33.715Z,3.20
2022-12-09T13:06:43.388Z,3.20
2022-12-09T13:10:00.470Z,3.20
2022-12-09T13:13:04.550Z,3.20
2022-12-09T13:16:29.065Z,3.20
2022-12-09T13:19:45.252Z,3.30
2022-12-09T13:23:14.550Z,3.20
2022-12-09T13:26:43.534Z,3.30
2022-12-09T13:30:06.779Z,3.10
2022-12-09T13:33:30.381Z,3.10
2022-12-09T13:36:47.334Z,3.10
2022-12-09T13:39:49.121Z,3.10
2022-12-09T13:43:14.531Z,3.10
2022-12-09T13:46:28.117Z,3.10
2022-12-09T13:49:29.902Z,3.10
2022-12-09T13:52:43.667Z,3.10
2022-12-09T13:56:03.536Z,3.10
2022-12-09T13:59:17.521Z,3.10
2022-12-09T14:02:39.091Z,3.20
2022-12-09T14:05:41.662Z,3.10
2022-12-09T14:08:53.430Z,3.10
2022-12-09T14:12:00.483Z,3.20
2022-12-09T14:15:25.908Z,3.20
2022-12-09T14:18:33.253Z,3.10
2022-12-09T14:21:35.424Z,3.10
2022-12-09T14:24:38.227Z,3.10
2022-12-09T14:27:59.994Z,3.20
2022-12-09T14:31:08.122Z,3.10
2022-12-09T14:34:29.922Z,3.10
2022-12-09T14:37:51.605Z,3.10
2022-12-09T14:41:30.646Z,3.20
2022-12-09T14:44:38.833Z,3.20
2022-12-09T14:47:44.675Z,3.20
2022-12-09T14:50:47.662Z,3.20
2022-12-09T14:53:56.355Z,3.20
2022-12-09T14:57:00.562Z,3.20
2022-12-09T15:00:04.944Z,3.20
2022-12-09T15:03:36.992Z,3.10
2022-12-09T15:06:42.655Z,3.10
2022-12-09T15:09:55.308Z,3.10
2022-12-09T15:12:57.574Z,3.10
2022-12-09T15:15:59.430Z,3.10
2022-12-09T15:19:01.536Z,3.00
2022-12-09T15:22:03.596Z,3.00
2022-12-09T15:25:05.621Z,3.10
2022-12-09T15:28:24.495Z,3.10
2022-12-09T15:31:30.464Z,3.20
2022-12-09T15:34:32.402Z,3.10
2022-12-09T15:37:34.279Z,3.20
2022-12-09T15:40:38.080Z,3.00
2022-12-09T15:43:42.708Z,3.00
2022-12-09T15:46:46.747Z,3.00
2022-12-09T15:50:26.732Z,3.10
2022-12-09T15:53:40.593Z,3.10
2022-12-09T15:56:52.315Z,3.00
2022-12-09T15:59:58.404Z,3.10
2022-12-09T16:03:00.645Z,3.10
2022-12-09T16:06:09.401Z,3.00
2022-12-09T16:09:16.634Z,3.00
2022-12-09T16:12:27.909Z,3.00
2022-12-09T16:15:47.590Z,3.00
2022-12-09T16:18:50.508Z,2.90
2022-12-09T16:21:54.753Z,3.00
2022-12-09T16:25:24.402Z,2.90
2022-12-09T16:28:28.547Z,2.90
2022-12-09T16:31:30.671Z,3.00
2022-12-09T16:34:32.744Z,2.90
2022-12-09T16:37:43.961Z,2.90
2022-12-09T16:40:45.867Z,2.90
2022-12-09T16:43:56.406Z,2.90
2022-12-09T16:47:16.252Z,2.90
2022-12-09T16:50:18.364Z,2.90
2022-12-09T16:53:27.390Z,2.80
2022-12-09T16:56:31.714Z,2.80
2022-12-09T16:59:42.322Z,2.80
2022-12-09T17:03:01.082Z,2.80
2022-12-09T17:06:03.874Z,2.80
2022-12-09T17:12:22.710Z,2.70
2022-12-09T17:15:24.845Z,2.70
2022-12-09T17:18:35.849Z,2.80
2022-12-09T17:30:20.697Z,2.70
2022-12-09T17:33:25.316Z,2.70
2022-12-09T17:36:27.301Z,2.70
2022-12-09T17:40:18.765Z,2.60
2022-12-09T17:43:43.462Z,2.60
2022-12-09T17:46:45.355Z,2.50
2022-12-09T17:49:47.363Z,2.50
2022-12-09T17:53:13.272Z,2.50
2022-12-09T17:56:18.218Z,2.40
2022-12-09T17:59:20.059Z,2.40
2022-12-09T18:02:21.955Z,2.40
2022-12-09T18:05:26.855Z,2.40
2022-12-09T18:08:29.924Z,2.30
2022-12-09T18:11:31.898Z,2.30
2022-12-09T18:14:33.850Z,2.30
2022-12-09T18:17:45.958Z,2.30
2022-12-09T18:20:47.751Z,2.30
2022-12-09T18:23:49.723Z,2.20
2022-12-09T18:26:51.816Z,2.10
2022-12-09T18:29:54.537Z,2.20
2022-12-09T18:37:10.003Z,2.20
2022-12-09T18:40:13.609Z,2.20
2022-12-09T18:51:26.105Z,2.10
2022-12-09T18:58:42.539Z,2.10
2022-12-09T19:01:46.554Z,2.00
2022-12-09T19:04:48.520Z,2.00
2022-12-09T19:07:50.336Z,2.00
2022-12-09T19:10:55.325Z,2.00
2022-12-09T19:13:57.724Z,2.10
2022-12-09T19:17:02.326Z,2.00
2022-12-09T19:20:04.803Z,2.00
2022-12-09T19:23:08.943Z,2.00
2022-12-09T19:26:13.087Z,2.00
2022-12-09T19:33:34.661Z,2.10
2022-12-09T19:43:35.285Z,2.10
2022-12-09T19:46:38.552Z,2.20
2022-12-09T19:49:46.535Z,2.00
2022-12-09T19:52:51.194Z,2.10
2022-12-09T19:55:53.044Z,2.00
2022-12-09T19:58:55.542Z,2.10
2022-12-09T20:14:24.989Z,2.00
2022-12-09T20:17:27.524Z,1.90
2022-12-09T20:20:29.573Z,1.90
2022-12-09T20:24:18.899Z,1.80
2022-12-09T20:27:31.306Z,1.90
2022-12-09T20:31:13.198Z,1.80
2022-12-09T20:34:19.255Z,1.90
2022-12-09T20:37:21.190Z,1.80
2022-12-09T20:40:23.192Z,1.80
2022-12-09T20:43:25.332Z,1.80
2022-12-09T20:46:29.913Z,1.80
2022-12-09T20:49:32.264Z,1.80
2022-12-09T20:52:34.315Z,1.80
2022-12-09T20:55:36.171Z,1.70
2022-12-09T20:58:39.192Z,1.70
2022-12-09T21:05:58.011Z,1.80
2022-12-09T21:09:01.371Z,1.80
2022-12-09T21:12:03.414Z,1.70
2022-12-09T21:15:05.845Z,1.70
2022-12-09T21:18:07.692Z,1.70
2022-12-09T21:21:10.102Z,1.70
2022-12-09T21:24:13.052Z,1.70
2022-12-09T21:27:14.835Z,1.60
2022-12-09T21:30:16.627Z,1.70
2022-12-09T21:33:18.569Z,1.60
2022-12-09T21:36:25.558Z,1.60
2022-12-09T21:39:28.232Z,1.60
2022-12-09T21:42:30.158Z,1.60
2022-12-09T21:45:32.239Z,1.60
2022-12-09T21:49:29.647Z,1.50
2022-12-09T21:52:31.554Z,1.50
2022-12-09T21:55:33.973Z,1.40
2022-12-09T21:58:36.225Z,1.40
2022-12-09T22:01:41.194Z,1.30
2022-12-09T22:04:44.149Z,1.40
2022-12-09T22:07:50.007Z,1.30
2022-12-09T22:10:51.848Z,1.30
2022-12-09T22:13:57.788Z,1.30
2022-12-09T22:16:59.698Z,1.30
2022-12-09T22:20:44.071Z,1.30
2022-12-09T22:23:23.332Z,1.20
2022-12-09T22:26:26.230Z,1.30
2022-12-09T22:29:27.952Z,1.20
2022-12-09T22:32:30.875Z,1.20
2022-12-09T22:35:33.196Z,1.10
2022-12-09T22:38:37.005Z,1.10
2022-12-09T22:41:38.831Z,1.10
2022-12-09T22:44:41.179Z,1.10
2022-12-09T22:47:43.190Z,1.10
2022-12-09T22:50:48.197Z,1.00
2022-12-09T22:53:51.332Z,1.00
2022-12-09T22:56:53.379Z,1.00
2022-12-09T22:59:55.154Z,1.00
2022-12-09T23:02:57.086Z,0.90
2022-12-09T23:06:01.740Z,0.90
2022-12-09T23:09:05.081Z,0.90
2022-12-09T23:12:06.889Z,1.00
2022-12-09T23:15:09.130Z,1.00
2022-12-09T23:18:10.912Z,0.90
2022-12-09T23:21:21.933Z,0.80
2022-12-09T23:24:25.118Z,0.80
2022-12-09T23:27:27.081Z,0.80
2022-12-09T23:30:28.837Z,0.70
2022-12-09T23:33:31.483Z,0.60
2022-12-09T23:36:39.228Z,0.60
2022-12-09T23:39:41.272Z,0.50
2022-12-09T23:42:43.068Z,0.50
2022-12-09T23:45:44.914Z,0.60
2022-12-09T23:48:49.014Z,0.60
2022-12-09T23:51:50.930Z,0.50
2022-12-09T23:54:53.250Z,0.50
2022-12-09T23:57:55.129Z,0.50
